sensor_id;sensor_type;location;lat;lon;timestamp;P1;durP1;ratioP1;P2;durP2;ratioP2
17173;SDS011;8702;48.130;-1.696;2023-06-14T00:01:01;21.87;;;17.70;;
17173;SDS011;8702;48.130;-1.696;2023-06-14T00:03:31;19.27;;;17.23;;
17173;SDS011;8702;48.130;-1.696;2023-06-14T00:05:59;20.27;;;18.17;;
17173;SDS011;8702;48.130;-1.696;2023-06-14T00:08:26;19.43;;;16.83;;
17173;SDS011;8702;48.130;-1.696;2023-06-14T00:10:53;22.07;;;17.13;;
17173;SDS011;8702;48.130;-1.696;2023-06-14T00:13:20;23.37;;;18.97;;
17173;SDS011;8702;48.130;-1.696;2023-06-14T00:15:47;20.63;;;18.40;;
17173;SDS011;8702;48.130;-1.696;2023-06-14T00:18:14;24.53;;;19.80;;
17173;SDS011;8702;48.130;-1.696;2023-06-14T00:20:41;23.77;;;19.90;;
17173;SDS011;8702;48.130;-1.696;2023-06-14T00:23:10;22.87;;;20.47;;
17173;SDS011;8702;48.130;-1.696;2023-06-14T00:25:36;23.67;;;21.07;;
17173;SDS011;8702;48.130;-1.696;2023-06-14T00:28:03;24.77;;;21.47;;
17173;SDS011;8702;48.130;-1.696;2023-06-14T00:30:30;26.03;;;21.87;;
17173;SDS011;8702;48.130;-1.696;2023-06-14T00:32:57;24.93;;;21.43;;
17173;SDS011;8702;48.130;-1.696;2023-06-14T00:35:24;24.80;;;22.20;;
17173;SDS011;8702;48.130;-1.696;2023-06-14T00:37:51;26.23;;;23.47;;
17173;SDS011;8702;48.130;-1.696;2023-06-14T00:40:21;26.87;;;22.97;;
17173;SDS011;8702;48.130;-1.696;2023-06-14T00:42:48;24.60;;;22.10;;
17173;SDS011;8702;48.130;-1.696;2023-06-14T00:45:15;29.70;;;24.27;;
17173;SDS011;8702;48.130;-1.696;2023-06-14T00:47:44;27.57;;;24.33;;
17173;SDS011;8702;48.130;-1.696;2023-06-14T00:50:12;29.70;;;24.90;;
17173;SDS011;8702;48.130;-1.696;2023-06-14T00:52:39;30.90;;;24.40;;
17173;SDS011;8702;48.130;-1.696;2023-06-14T00:55:07;29.10;;;26.03;;
17173;SDS011;8702;48.130;-1.696;2023-06-14T00:57:36;30.23;;;26.93;;
17173;SDS011;8702;48.130;-1.696;2023-06-14T01:00:05;29.67;;;26.60;;
17173;SDS011;8702;48.130;-1.696;2023-06-14T01:02:34;28.70;;;25.67;;
17173;SDS011;8702;48.130;-1.696;2023-06-14T01:05:02;31.13;;;26.97;;
17173;SDS011;8702;48.130;-1.696;2023-06-14T01:07:33;28.73;;;25.53;;
17173;SDS011;8702;48.130;-1.696;2023-06-14T01:10:15;29.00;;;25.60;;
17173;SDS011;8702;48.130;-1.696;2023-06-14T01:12:55;32.40;;;27.63;;
17173;SDS011;8702;48.130;-1.696;2023-06-14T01:15:25;31.33;;;28.03;;
17173;SDS011;8702;48.130;-1.696;2023-06-14T01:17:53;32.50;;;26.83;;
17173;SDS011;8702;48.130;-1.696;2023-06-14T01:20:28;31.83;;;26.77;;
17173;SDS011;8702;48.130;-1.696;2023-06-14T01:22:57;30.37;;;27.17;;
17173;SDS011;8702;48.130;-1.696;2023-06-14T01:25:24;34.83;;;28.17;;
17173;SDS011;8702;48.130;-1.696;2023-06-14T01:27:53;29.57;;;26.27;;
17173;SDS011;8702;48.130;-1.696;2023-06-14T01:30:23;30.80;;;27.53;;
17173;SDS011;8702;48.130;-1.696;2023-06-14T01:32:51;31.60;;;28.10;;
17173;SDS011;8702;48.130;-1.696;2023-06-14T01:35:19;32.33;;;28.13;;
17173;SDS011;8702;48.130;-1.696;2023-06-14T01:37:47;31.33;;;27.97;;
17173;SDS011;8702;48.130;-1.696;2023-06-14T01:40:16;33.47;;;28.27;;
17173;SDS011;8702;48.130;-1.696;2023-06-14T01:42:44;31.40;;;27.20;;
17173;SDS011;8702;48.130;-1.696;2023-06-14T01:45:13;32.77;;;29.03;;
17173;SDS011;8702;48.130;-1.696;2023-06-14T01:47:41;33.47;;;28.13;;
17173;SDS011;8702;48.130;-1.696;2023-06-14T01:50:09;31.50;;;28.10;;
17173;SDS011;8702;48.130;-1.696;2023-06-14T01:52:37;32.80;;;28.37;;
17173;SDS011;8702;48.130;-1.696;2023-06-14T01:55:04;32.13;;;27.73;;
17173;SDS011;8702;48.130;-1.696;2023-06-14T01:57:34;32.23;;;28.73;;
17173;SDS011;8702;48.130;-1.696;2023-06-14T02:00:01;33.20;;;28.47;;
17173;SDS011;8702;48.130;-1.696;2023-06-14T02:02:28;32.10;;;28.10;;
17173;SDS011;8702;48.130;-1.696;2023-06-14T02:04:55;33.67;;;27.73;;
17173;SDS011;8702;48.130;-1.696;2023-06-14T02:07:23;32.33;;;28.87;;
17173;SDS011;8702;48.130;-1.696;2023-06-14T02:09:50;33.50;;;29.20;;
17173;SDS011;8702;48.130;-1.696;2023-06-14T02:12:17;33.30;;;29.60;;
17173;SDS011;8702;48.130;-1.696;2023-06-14T02:14:46;31.43;;;28.03;;
17173;SDS011;8702;48.130;-1.696;2023-06-14T02:17:13;35.43;;;28.50;;
17173;SDS011;8702;48.130;-1.696;2023-06-14T02:19:41;33.80;;;29.57;;
17173;SDS011;8702;48.130;-1.696;2023-06-14T02:22:08;35.90;;;30.43;;
17173;SDS011;8702;48.130;-1.696;2023-06-14T02:24:35;32.73;;;29.17;;
17173;SDS011;8702;48.130;-1.696;2023-06-14T02:27:03;36.73;;;30.57;;
17173;SDS011;8702;48.130;-1.696;2023-06-14T02:29:31;38.40;;;31.43;;
17173;SDS011;8702;48.130;-1.696;2023-06-14T02:31:59;37.47;;;31.70;;
17173;SDS011;8702;48.130;-1.696;2023-06-14T02:34:27;35.67;;;31.83;;
17173;SDS011;8702;48.130;-1.696;2023-06-14T02:36:54;38.67;;;31.57;;
17173;SDS011;8702;48.130;-1.696;2023-06-14T02:39:22;41.93;;;34.47;;
17173;SDS011;8702;48.130;-1.696;2023-06-14T02:41:50;40.87;;;33.33;;
17173;SDS011;8702;48.130;-1.696;2023-06-14T02:44:17;39.47;;;34.57;;
17173;SDS011;8702;48.130;-1.696;2023-06-14T02:46:44;38.70;;;34.53;;
17173;SDS011;8702;48.130;-1.696;2023-06-14T02:49:13;41.83;;;35.93;;
17173;SDS011;8702;48.130;-1.696;2023-06-14T02:51:40;38.73;;;32.70;;
17173;SDS011;8702;48.130;-1.696;2023-06-14T02:54:07;41.43;;;33.90;;
17173;SDS011;8702;48.130;-1.696;2023-06-14T02:56:34;42.40;;;36.00;;
17173;SDS011;8702;48.130;-1.696;2023-06-14T02:59:02;42.17;;;35.73;;
17173;SDS011;8702;48.130;-1.696;2023-06-14T03:01:29;40.90;;;34.97;;
17173;SDS011;8702;48.130;-1.696;2023-06-14T03:03:59;39.20;;;34.97;;
17173;SDS011;8702;48.130;-1.696;2023-06-14T03:06:28;37.80;;;33.77;;
17173;SDS011;8702;48.130;-1.696;2023-06-14T03:08:55;41.67;;;36.10;;
17173;SDS011;8702;48.130;-1.696;2023-06-14T03:11:24;44.63;;;35.40;;
17173;SDS011;8702;48.130;-1.696;2023-06-14T03:13:52;40.63;;;35.20;;
17173;SDS011;8702;48.130;-1.696;2023-06-14T03:16:20;38.90;;;34.60;;
17173;SDS011;8702;48.130;-1.696;2023-06-14T03:18:49;40.57;;;34.67;;
17173;SDS011;8702;48.130;-1.696;2023-06-14T03:21:16;46.87;;;35.23;;
17173;SDS011;8702;48.130;-1.696;2023-06-14T03:23:44;42.27;;;36.27;;
17173;SDS011;8702;48.130;-1.696;2023-06-14T03:26:12;42.47;;;33.93;;
17173;SDS011;8702;48.130;-1.696;2023-06-14T03:28:40;42.63;;;34.43;;
17173;SDS011;8702;48.130;-1.696;2023-06-14T03:31:07;41.73;;;34.63;;
17173;SDS011;8702;48.130;-1.696;2023-06-14T03:33:34;39.13;;;33.93;;
17173;SDS011;8702;48.130;-1.696;2023-06-14T03:36:01;41.17;;;35.87;;
17173;SDS011;8702;48.130;-1.696;2023-06-14T03:38:28;42.20;;;36.90;;
17173;SDS011;8702;48.130;-1.696;2023-06-14T03:40:57;40.50;;;35.47;;
17173;SDS011;8702;48.130;-1.696;2023-06-14T03:43:24;43.60;;;36.23;;
17173;SDS011;8702;48.130;-1.696;2023-06-14T03:45:51;41.40;;;35.67;;
17173;SDS011;8702;48.130;-1.696;2023-06-14T03:48:18;43.30;;;36.90;;
17173;SDS011;8702;48.130;-1.696;2023-06-14T03:50:44;46.60;;;35.83;;
17173;SDS011;8702;48.130;-1.696;2023-06-14T03:53:12;46.83;;;36.60;;
17173;SDS011;8702;48.130;-1.696;2023-06-14T03:55:39;45.17;;;35.30;;
17173;SDS011;8702;48.130;-1.696;2023-06-14T03:58:08;46.67;;;37.03;;
17173;SDS011;8702;48.130;-1.696;2023-06-14T04:00:35;42.07;;;35.37;;
17173;SDS011;8702;48.130;-1.696;2023-06-14T04:03:03;41.03;;;35.27;;
17173;SDS011;8702;48.130;-1.696;2023-06-14T04:05:30;40.77;;;34.70;;
17173;SDS011;8702;48.130;-1.696;2023-06-14T04:07:59;48.63;;;36.47;;
17173;SDS011;8702;48.130;-1.696;2023-06-14T04:10:26;41.37;;;35.27;;
17173;SDS011;8702;48.130;-1.696;2023-06-14T04:12:53;44.93;;;35.97;;
17173;SDS011;8702;48.130;-1.696;2023-06-14T04:15:22;42.87;;;35.60;;
17173;SDS011;8702;48.130;-1.696;2023-06-14T04:17:49;47.47;;;38.13;;
17173;SDS011;8702;48.130;-1.696;2023-06-14T04:20:16;39.40;;;34.03;;
17173;SDS011;8702;48.130;-1.696;2023-06-14T04:22:43;41.30;;;36.10;;
17173;SDS011;8702;48.130;-1.696;2023-06-14T04:25:10;42.87;;;34.73;;
17173;SDS011;8702;48.130;-1.696;2023-06-14T04:27:37;42.50;;;35.70;;
17173;SDS011;8702;48.130;-1.696;2023-06-14T04:30:05;41.23;;;32.87;;
17173;SDS011;8702;48.130;-1.696;2023-06-14T04:32:34;42.43;;;33.47;;
17173;SDS011;8702;48.130;-1.696;2023-06-14T04:35:03;39.87;;;34.53;;
17173;SDS011;8702;48.130;-1.696;2023-06-14T04:37:31;43.60;;;33.63;;
17173;SDS011;8702;48.130;-1.696;2023-06-14T04:39:58;38.30;;;33.27;;
17173;SDS011;8702;48.130;-1.696;2023-06-14T04:42:25;37.77;;;33.40;;
17173;SDS011;8702;48.130;-1.696;2023-06-14T04:44:56;39.13;;;32.73;;
17173;SDS011;8702;48.130;-1.696;2023-06-14T04:47:23;35.93;;;30.93;;
17173;SDS011;8702;48.130;-1.696;2023-06-14T04:49:56;38.20;;;34.00;;
17173;SDS011;8702;48.130;-1.696;2023-06-14T04:52:25;38.57;;;31.73;;
17173;SDS011;8702;48.130;-1.696;2023-06-14T04:54:54;39.13;;;32.03;;
17173;SDS011;8702;48.130;-1.696;2023-06-14T04:57:21;35.70;;;29.93;;
17173;SDS011;8702;48.130;-1.696;2023-06-14T04:59:50;35.63;;;30.23;;
17173;SDS011;8702;48.130;-1.696;2023-06-14T05:02:20;37.23;;;32.27;;
17173;SDS011;8702;48.130;-1.696;2023-06-14T05:04:48;38.00;;;29.40;;
17173;SDS011;8702;48.130;-1.696;2023-06-14T05:07:16;36.57;;;28.50;;
17173;SDS011;8702;48.130;-1.696;2023-06-14T05:09:44;37.30;;;30.23;;
17173;SDS011;8702;48.130;-1.696;2023-06-14T05:12:11;35.93;;;28.77;;
17173;SDS011;8702;48.130;-1.696;2023-06-14T05:14:38;34.97;;;29.07;;
17173;SDS011;8702;48.130;-1.696;2023-06-14T05:17:05;37.03;;;28.60;;
17173;SDS011;8702;48.130;-1.696;2023-06-14T05:19:32;39.53;;;27.20;;
17173;SDS011;8702;48.130;-1.696;2023-06-14T05:21:59;31.03;;;27.73;;
17173;SDS011;8702;48.130;-1.696;2023-06-14T05:24:30;30.90;;;26.60;;
17173;SDS011;8702;48.130;-1.696;2023-06-14T05:26:57;31.50;;;26.73;;
17173;SDS011;8702;48.130;-1.696;2023-06-14T05:29:24;34.63;;;29.23;;
17173;SDS011;8702;48.130;-1.696;2023-06-14T05:31:52;34.50;;;28.00;;
17173;SDS011;8702;48.130;-1.696;2023-06-14T05:34:19;32.17;;;26.10;;
17173;SDS011;8702;48.130;-1.696;2023-06-14T05:36:46;31.93;;;26.03;;
17173;SDS011;8702;48.130;-1.696;2023-06-14T05:39:13;29.93;;;25.90;;
17173;SDS011;8702;48.130;-1.696;2023-06-14T05:41:41;32.30;;;26.97;;
17173;SDS011;8702;48.130;-1.696;2023-06-14T05:44:08;35.23;;;27.47;;
17173;SDS011;8702;48.130;-1.696;2023-06-14T05:46:35;33.43;;;25.93;;
17173;SDS011;8702;48.130;-1.696;2023-06-14T05:49:05;32.60;;;25.80;;
17173;SDS011;8702;48.130;-1.696;2023-06-14T05:51:32;30.80;;;25.73;;
17173;SDS011;8702;48.130;-1.696;2023-06-14T05:53:59;35.17;;;25.07;;
17173;SDS011;8702;48.130;-1.696;2023-06-14T05:56:26;35.23;;;27.63;;
17173;SDS011;8702;48.130;-1.696;2023-06-14T05:58:54;31.23;;;24.80;;
17173;SDS011;8702;48.130;-1.696;2023-06-14T06:01:21;30.87;;;25.53;;
17173;SDS011;8702;48.130;-1.696;2023-06-14T06:03:48;26.60;;;23.77;;
17173;SDS011;8702;48.130;-1.696;2023-06-14T06:06:17;35.63;;;25.90;;
17173;SDS011;8702;48.130;-1.696;2023-06-14T06:08:44;29.40;;;24.30;;
17173;SDS011;8702;48.130;-1.696;2023-06-14T06:11:11;27.57;;;23.67;;
17173;SDS011;8702;48.130;-1.696;2023-06-14T06:13:38;29.10;;;24.83;;
17173;SDS011;8702;48.130;-1.696;2023-06-14T06:16:07;29.87;;;22.07;;
17173;SDS011;8702;48.130;-1.696;2023-06-14T06:18:34;27.93;;;23.00;;
17173;SDS011;8702;48.130;-1.696;2023-06-14T06:21:01;26.70;;;21.00;;
17173;SDS011;8702;48.130;-1.696;2023-06-14T06:23:29;29.30;;;21.60;;
17173;SDS011;8702;48.130;-1.696;2023-06-14T06:25:56;26.17;;;20.73;;
17173;SDS011;8702;48.130;-1.696;2023-06-14T06:28:23;26.43;;;20.63;;
17173;SDS011;8702;48.130;-1.696;2023-06-14T06:30:50;28.07;;;20.17;;
17173;SDS011;8702;48.130;-1.696;2023-06-14T06:33:19;24.40;;;20.50;;
17173;SDS011;8702;48.130;-1.696;2023-06-14T06:35:47;26.83;;;20.10;;
17173;SDS011;8702;48.130;-1.696;2023-06-14T06:38:17;26.50;;;19.03;;
17173;SDS011;8702;48.130;-1.696;2023-06-14T06:40:44;22.33;;;17.47;;
17173;SDS011;8702;48.130;-1.696;2023-06-14T06:43:11;21.73;;;17.53;;
17173;SDS011;8702;48.130;-1.696;2023-06-14T06:45:39;21.40;;;16.70;;
17173;SDS011;8702;48.130;-1.696;2023-06-14T06:48:06;21.20;;;17.37;;
17173;SDS011;8702;48.130;-1.696;2023-06-14T06:50:36;22.90;;;17.33;;
17173;SDS011;8702;48.130;-1.696;2023-06-14T06:53:03;23.13;;;17.97;;
17173;SDS011;8702;48.130;-1.696;2023-06-14T06:55:31;18.67;;;15.67;;
17173;SDS011;8702;48.130;-1.696;2023-06-14T06:57:58;26.87;;;17.50;;
17173;SDS011;8702;48.130;-1.696;2023-06-14T07:00:25;26.67;;;17.27;;
17173;SDS011;8702;48.130;-1.696;2023-06-14T07:02:52;26.47;;;17.50;;
17173;SDS011;8702;48.130;-1.696;2023-06-14T07:05:20;21.47;;;15.13;;
17173;SDS011;8702;48.130;-1.696;2023-06-14T07:07:48;26.93;;;15.83;;
17173;SDS011;8702;48.130;-1.696;2023-06-14T07:10:15;23.70;;;15.47;;
17173;SDS011;8702;48.130;-1.696;2023-06-14T07:12:42;19.80;;;15.67;;
17173;SDS011;8702;48.130;-1.696;2023-06-14T07:15:09;20.90;;;15.03;;
17173;SDS011;8702;48.130;-1.696;2023-06-14T07:17:36;19.73;;;14.93;;
17173;SDS011;8702;48.130;-1.696;2023-06-14T07:20:03;20.93;;;15.13;;
17173;SDS011;8702;48.130;-1.696;2023-06-14T07:22:38;19.67;;;15.77;;
17173;SDS011;8702;48.130;-1.696;2023-06-14T07:25:08;22.00;;;14.53;;
17173;SDS011;8702;48.130;-1.696;2023-06-14T07:27:38;17.83;;;15.37;;
17173;SDS011;8702;48.130;-1.696;2023-06-14T07:30:06;21.97;;;15.20;;
17173;SDS011;8702;48.130;-1.696;2023-06-14T07:32:35;17.57;;;14.40;;
17173;SDS011;8702;48.130;-1.696;2023-06-14T07:35:02;19.30;;;14.60;;
17173;SDS011;8702;48.130;-1.696;2023-06-14T07:37:30;18.93;;;15.30;;
17173;SDS011;8702;48.130;-1.696;2023-06-14T07:39:56;18.90;;;14.33;;
17173;SDS011;8702;48.130;-1.696;2023-06-14T07:42:25;18.73;;;13.80;;
17173;SDS011;8702;48.130;-1.696;2023-06-14T07:44:52;20.30;;;13.80;;
17173;SDS011;8702;48.130;-1.696;2023-06-14T07:47:19;15.70;;;14.00;;
17173;SDS011;8702;48.130;-1.696;2023-06-14T07:49:46;20.23;;;13.10;;
17173;SDS011;8702;48.130;-1.696;2023-06-14T07:52:13;19.07;;;13.77;;
17173;SDS011;8702;48.130;-1.696;2023-06-14T07:54:39;16.47;;;13.63;;
17173;SDS011;8702;48.130;-1.696;2023-06-14T07:57:06;17.23;;;13.40;;
17173;SDS011;8702;48.130;-1.696;2023-06-14T07:59:35;16.03;;;12.57;;
17173;SDS011;8702;48.130;-1.696;2023-06-14T08:02:03;16.73;;;13.17;;
17173;SDS011;8702;48.130;-1.696;2023-06-14T08:04:31;17.73;;;12.43;;
17173;SDS011;8702;48.130;-1.696;2023-06-14T08:06:58;15.47;;;12.40;;
17173;SDS011;8702;48.130;-1.696;2023-06-14T08:09:26;17.00;;;12.07;;
17173;SDS011;8702;48.130;-1.696;2023-06-14T08:11:54;26.03;;;13.53;;
17173;SDS011;8702;48.130;-1.696;2023-06-14T08:14:20;20.80;;;12.87;;
17173;SDS011;8702;48.130;-1.696;2023-06-14T08:16:49;14.73;;;11.70;;
17173;SDS011;8702;48.130;-1.696;2023-06-14T08:19:16;20.20;;;13.03;;
17173;SDS011;8702;48.130;-1.696;2023-06-14T08:21:43;18.80;;;12.80;;
17173;SDS011;8702;48.130;-1.696;2023-06-14T08:24:11;14.67;;;11.50;;
17173;SDS011;8702;48.130;-1.696;2023-06-14T08:26:39;14.63;;;11.57;;
17173;SDS011;8702;48.130;-1.696;2023-06-14T08:29:06;14.07;;;11.07;;
17173;SDS011;8702;48.130;-1.696;2023-06-14T08:31:33;16.37;;;10.93;;
17173;SDS011;8702;48.130;-1.696;2023-06-14T08:34:02;16.53;;;11.10;;
17173;SDS011;8702;48.130;-1.696;2023-06-14T08:36:29;17.23;;;10.77;;
17173;SDS011;8702;48.130;-1.696;2023-06-14T08:38:56;15.17;;;10.17;;
17173;SDS011;8702;48.130;-1.696;2023-06-14T08:41:23;15.57;;;10.50;;
17173;SDS011;8702;48.130;-1.696;2023-06-14T08:43:50;15.07;;;11.67;;
17173;SDS011;8702;48.130;-1.696;2023-06-14T08:46:17;12.97;;;10.00;;
17173;SDS011;8702;48.130;-1.696;2023-06-14T08:48:46;10.90;;;9.80;;
17173;SDS011;8702;48.130;-1.696;2023-06-14T08:51:16;13.50;;;9.33;;
17173;SDS011;8702;48.130;-1.696;2023-06-14T08:53:47;16.53;;;9.97;;
17173;SDS011;8702;48.130;-1.696;2023-06-14T08:56:18;14.13;;;9.40;;
17173;SDS011;8702;48.130;-1.696;2023-06-14T08:58:47;18.30;;;9.70;;
17173;SDS011;8702;48.130;-1.696;2023-06-14T09:01:14;15.33;;;10.00;;
17173;SDS011;8702;48.130;-1.696;2023-06-14T09:03:42;16.67;;;9.80;;
17173;SDS011;8702;48.130;-1.696;2023-06-14T09:06:09;14.10;;;10.13;;
17173;SDS011;8702;48.130;-1.696;2023-06-14T09:08:43;13.97;;;10.13;;
17173;SDS011;8702;48.130;-1.696;2023-06-14T09:11:11;14.13;;;9.07;;
17173;SDS011;8702;48.130;-1.696;2023-06-14T09:13:39;18.07;;;9.03;;
17173;SDS011;8702;48.130;-1.696;2023-06-14T09:16:07;12.37;;;8.80;;
17173;SDS011;8702;48.130;-1.696;2023-06-14T09:18:35;11.50;;;8.80;;
17173;SDS011;8702;48.130;-1.696;2023-06-14T09:21:02;13.90;;;9.57;;
17173;SDS011;8702;48.130;-1.696;2023-06-14T09:23:29;13.97;;;8.83;;
17173;SDS011;8702;48.130;-1.696;2023-06-14T09:26:02;12.73;;;8.23;;
17173;SDS011;8702;48.130;-1.696;2023-06-14T09:28:36;19.23;;;9.13;;
17173;SDS011;8702;48.130;-1.696;2023-06-14T09:31:08;10.53;;;7.90;;
17173;SDS011;8702;48.130;-1.696;2023-06-14T09:33:36;11.70;;;8.23;;
17173;SDS011;8702;48.130;-1.696;2023-06-14T09:36:03;12.87;;;8.27;;
17173;SDS011;8702;48.130;-1.696;2023-06-14T09:38:35;11.87;;;7.43;;
17173;SDS011;8702;48.130;-1.696;2023-06-14T09:41:03;12.73;;;7.03;;
17173;SDS011;8702;48.130;-1.696;2023-06-14T09:43:31;13.40;;;7.47;;
17173;SDS011;8702;48.130;-1.696;2023-06-14T09:46:00;11.87;;;7.33;;
17173;SDS011;8702;48.130;-1.696;2023-06-14T09:48:27;12.80;;;7.43;;
17173;SDS011;8702;48.130;-1.696;2023-06-14T09:50:55;12.77;;;8.30;;
17173;SDS011;8702;48.130;-1.696;2023-06-14T09:53:23;10.23;;;7.43;;
17173;SDS011;8702;48.130;-1.696;2023-06-14T09:55:51;18.30;;;8.50;;
17173;SDS011;8702;48.130;-1.696;2023-06-14T09:58:22;10.33;;;6.90;;
17173;SDS011;8702;48.130;-1.696;2023-06-14T10:00:52;11.07;;;7.20;;
17173;SDS011;8702;48.130;-1.696;2023-06-14T10:03:24;11.70;;;7.30;;
17173;SDS011;8702;48.130;-1.696;2023-06-14T10:05:55;10.23;;;6.80;;
17173;SDS011;8702;48.130;-1.696;2023-06-14T10:08:27;9.43;;;6.83;;
17173;SDS011;8702;48.130;-1.696;2023-06-14T10:10:58;11.00;;;7.30;;
17173;SDS011;8702;48.130;-1.696;2023-06-14T10:13:26;10.53;;;6.70;;
17173;SDS011;8702;48.130;-1.696;2023-06-14T10:16:01;10.40;;;6.93;;
17173;SDS011;8702;48.130;-1.696;2023-06-14T10:18:34;9.97;;;6.23;;
17173;SDS011;8702;48.130;-1.696;2023-06-14T10:21:04;10.20;;;6.50;;
17173;SDS011;8702;48.130;-1.696;2023-06-14T10:23:35;11.17;;;6.20;;
17173;SDS011;8702;48.130;-1.696;2023-06-14T10:26:04;10.80;;;5.63;;
17173;SDS011;8702;48.130;-1.696;2023-06-14T10:28:32;17.00;;;7.30;;
17173;SDS011;8702;48.130;-1.696;2023-06-14T10:31:07;8.60;;;6.00;;
17173;SDS011;8702;48.130;-1.696;2023-06-14T10:33:36;10.67;;;6.63;;
17173;SDS011;8702;48.130;-1.696;2023-06-14T10:36:10;7.20;;;6.00;;
17173;SDS011;8702;48.130;-1.696;2023-06-14T10:38:59;8.27;;;6.30;;
17173;SDS011;8702;48.130;-1.696;2023-06-14T10:41:28;8.00;;;6.33;;
17173;SDS011;8702;48.130;-1.696;2023-06-14T10:46:59;11.83;;;6.17;;
17173;SDS011;8702;48.130;-1.696;2023-06-14T10:49:39;10.47;;;6.90;;
17173;SDS011;8702;48.130;-1.696;2023-06-14T10:52:08;10.80;;;6.17;;
17173;SDS011;8702;48.130;-1.696;2023-06-14T10:54:56;7.30;;;5.23;;
17173;SDS011;8702;48.130;-1.696;2023-06-14T10:57:31;10.07;;;6.23;;
17173;SDS011;8702;48.130;-1.696;2023-06-14T11:00:00;10.73;;;6.60;;
17173;SDS011;8702;48.130;-1.696;2023-06-14T11:02:51;11.90;;;6.63;;
17173;SDS011;8702;48.130;-1.696;2023-06-14T11:05:50;7.47;;;6.27;;
17173;SDS011;8702;48.130;-1.696;2023-06-14T11:08:27;10.67;;;6.33;;
17173;SDS011;8702;48.130;-1.696;2023-06-14T11:11:15;10.47;;;6.87;;
17173;SDS011;8702;48.130;-1.696;2023-06-14T11:13:43;10.27;;;6.10;;
17173;SDS011;8702;48.130;-1.696;2023-06-14T11:16:13;9.87;;;6.50;;
17173;SDS011;8702;48.130;-1.696;2023-06-14T11:18:41;8.80;;;6.03;;
17173;SDS011;8702;48.130;-1.696;2023-06-14T11:21:10;12.17;;;6.70;;
17173;SDS011;8702;48.130;-1.696;2023-06-14T11:23:36;14.33;;;6.87;;
17173;SDS011;8702;48.130;-1.696;2023-06-14T11:26:04;10.77;;;5.60;;
17173;SDS011;8702;48.130;-1.696;2023-06-14T11:28:37;8.60;;;5.67;;
17173;SDS011;8702;48.130;-1.696;2023-06-14T11:31:06;11.50;;;7.10;;
17173;SDS011;8702;48.130;-1.696;2023-06-14T11:33:35;10.97;;;6.23;;
17173;SDS011;8702;48.130;-1.696;2023-06-14T11:36:02;11.33;;;6.30;;
17173;SDS011;8702;48.130;-1.696;2023-06-14T11:38:34;8.20;;;6.38;;
17173;SDS011;8702;48.130;-1.696;2023-06-14T11:41:02;12.48;;;5.97;;
17173;SDS011;8702;48.130;-1.696;2023-06-14T11:43:29;11.00;;;6.88;;
17173;SDS011;8702;48.130;-1.696;2023-06-14T11:45:58;8.40;;;5.90;;
17173;SDS011;8702;48.130;-1.696;2023-06-14T11:48:36;9.13;;;5.45;;
17173;SDS011;8702;48.130;-1.696;2023-06-14T11:51:04;9.63;;;5.88;;
17173;SDS011;8702;48.130;-1.696;2023-06-14T11:53:31;10.18;;;5.88;;
17173;SDS011;8702;48.130;-1.696;2023-06-14T11:55:58;7.50;;;5.63;;
17173;SDS011;8702;48.130;-1.696;2023-06-14T11:58:25;8.27;;;6.17;;
17173;SDS011;8702;48.130;-1.696;2023-06-14T12:00:52;7.97;;;5.88;;
17173;SDS011;8702;48.130;-1.696;2023-06-14T12:03:22;10.00;;;6.03;;
17173;SDS011;8702;48.130;-1.696;2023-06-14T12:05:51;9.23;;;5.38;;
17173;SDS011;8702;48.130;-1.696;2023-06-14T12:08:32;9.18;;;6.22;;
17173;SDS011;8702;48.130;-1.696;2023-06-14T12:11:04;8.30;;;5.53;;
17173;SDS011;8702;48.130;-1.696;2023-06-14T12:13:31;7.20;;;5.57;;
17173;SDS011;8702;48.130;-1.696;2023-06-14T12:15:58;11.48;;;5.85;;
17173;SDS011;8702;48.130;-1.696;2023-06-14T12:18:31;7.75;;;5.65;;
17173;SDS011;8702;48.130;-1.696;2023-06-14T12:21:00;11.05;;;6.38;;
17173;SDS011;8702;48.130;-1.696;2023-06-14T12:23:39;9.30;;;5.80;;
17173;SDS011;8702;48.130;-1.696;2023-06-14T12:26:12;7.82;;;5.40;;
17173;SDS011;8702;48.130;-1.696;2023-06-14T12:28:40;9.00;;;5.50;;
17173;SDS011;8702;48.130;-1.696;2023-06-14T12:31:10;8.07;;;5.75;;
17173;SDS011;8702;48.130;-1.696;2023-06-14T12:33:38;11.45;;;6.32;;
17173;SDS011;8702;48.130;-1.696;2023-06-14T12:36:08;7.75;;;5.82;;
17173;SDS011;8702;48.130;-1.696;2023-06-14T12:38:36;12.75;;;5.93;;
17173;SDS011;8702;48.130;-1.696;2023-06-14T12:41:03;6.18;;;5.32;;
17173;SDS011;8702;48.130;-1.696;2023-06-14T12:43:30;10.48;;;5.40;;
17173;SDS011;8702;48.130;-1.696;2023-06-14T12:45:57;10.05;;;5.22;;
17173;SDS011;8702;48.130;-1.696;2023-06-14T12:48:25;8.63;;;5.63;;
17173;SDS011;8702;48.130;-1.696;2023-06-14T12:50:52;9.20;;;5.25;;
17173;SDS011;8702;48.130;-1.696;2023-06-14T12:53:21;8.98;;;5.75;;
17173;SDS011;8702;48.130;-1.696;2023-06-14T12:55:48;8.13;;;5.78;;
17173;SDS011;8702;48.130;-1.696;2023-06-14T12:58:15;6.05;;;5.47;;
17173;SDS011;8702;48.130;-1.696;2023-06-14T13:00:44;15.88;;;6.07;;
17173;SDS011;8702;48.130;-1.696;2023-06-14T13:03:11;7.28;;;4.90;;
17173;SDS011;8702;48.130;-1.696;2023-06-14T13:05:38;8.65;;;5.55;;
17173;SDS011;8702;48.130;-1.696;2023-06-14T13:08:06;8.25;;;5.78;;
17173;SDS011;8702;48.130;-1.696;2023-06-14T13:10:35;9.48;;;5.38;;
17173;SDS011;8702;48.130;-1.696;2023-06-14T13:13:03;7.53;;;5.55;;
17173;SDS011;8702;48.130;-1.696;2023-06-14T13:15:29;7.35;;;5.63;;
17173;SDS011;8702;48.130;-1.696;2023-06-14T13:17:57;9.77;;;5.30;;
17173;SDS011;8702;48.130;-1.696;2023-06-14T13:20:24;7.93;;;5.50;;
17173;SDS011;8702;48.130;-1.696;2023-06-14T13:22:51;7.30;;;5.30;;
17173;SDS011;8702;48.130;-1.696;2023-06-14T13:25:18;8.00;;;5.32;;
17173;SDS011;8702;48.130;-1.696;2023-06-14T13:27:46;12.20;;;5.90;;
17173;SDS011;8702;48.130;-1.696;2023-06-14T13:30:13;9.85;;;4.90;;
17173;SDS011;8702;48.130;-1.696;2023-06-14T13:32:40;5.55;;;4.75;;
17173;SDS011;8702;48.130;-1.696;2023-06-14T13:35:07;9.55;;;5.60;;
17173;SDS011;8702;48.130;-1.696;2023-06-14T13:37:34;7.72;;;5.35;;
17173;SDS011;8702;48.130;-1.696;2023-06-14T13:40:01;5.78;;;5.28;;
17173;SDS011;8702;48.130;-1.696;2023-06-14T13:42:28;7.40;;;5.65;;
17173;SDS011;8702;48.130;-1.696;2023-06-14T13:44:59;6.95;;;5.72;;
17173;SDS011;8702;48.130;-1.696;2023-06-14T13:47:25;10.10;;;5.10;;
17173;SDS011;8702;48.130;-1.696;2023-06-14T13:49:52;6.70;;;5.15;;
17173;SDS011;8702;48.130;-1.696;2023-06-14T13:52:19;7.35;;;5.20;;
17173;SDS011;8702;48.130;-1.696;2023-06-14T13:54:48;6.30;;;4.93;;
17173;SDS011;8702;48.130;-1.696;2023-06-14T13:57:16;10.43;;;5.75;;
17173;SDS011;8702;48.130;-1.696;2023-06-14T13:59:44;8.40;;;5.13;;
17173;SDS011;8702;48.130;-1.696;2023-06-14T14:02:12;7.30;;;5.20;;
17173;SDS011;8702;48.130;-1.696;2023-06-14T14:04:39;5.82;;;5.00;;
17173;SDS011;8702;48.130;-1.696;2023-06-14T14:07:07;7.95;;;4.70;;
17173;SDS011;8702;48.130;-1.696;2023-06-14T14:09:34;5.30;;;4.78;;
17173;SDS011;8702;48.130;-1.696;2023-06-14T14:12:02;5.82;;;5.32;;
17173;SDS011;8702;48.130;-1.696;2023-06-14T14:14:30;7.47;;;5.57;;
17173;SDS011;8702;48.130;-1.696;2023-06-14T14:16:58;7.50;;;4.97;;
17173;SDS011;8702;48.130;-1.696;2023-06-14T14:19:26;10.30;;;5.18;;
17173;SDS011;8702;48.130;-1.696;2023-06-14T14:21:53;10.48;;;4.93;;
17173;SDS011;8702;48.130;-1.696;2023-06-14T14:24:20;8.45;;;5.30;;
17173;SDS011;8702;48.130;-1.696;2023-06-14T14:26:47;5.57;;;5.07;;
17173;SDS011;8702;48.130;-1.696;2023-06-14T14:29:15;7.07;;;4.90;;
17173;SDS011;8702;48.130;-1.696;2023-06-14T14:31:42;6.00;;;5.38;;
17173;SDS011;8702;48.130;-1.696;2023-06-14T14:34:09;6.47;;;5.13;;
17173;SDS011;8702;48.130;-1.696;2023-06-14T14:36:37;13.45;;;5.00;;
17173;SDS011;8702;48.130;-1.696;2023-06-14T14:39:07;5.65;;;4.93;;